createdAt,value
2018-11-28T00:00:30.302Z,8.91
2018-11-28T00:02:59.890Z,8.92
2018-11-28T00:05:28.558Z,8.93
2018-11-28T00:07:57.252Z,8.94
2018-11-28T00:10:25.949Z,8.96
2018-11-28T00:12:54.659Z,8.98
2018-11-28T00:15:23.360Z,8.98
2018-11-28T00:17:52.078Z,9.00
2018-11-28T00:20:21.828Z,9.01
2018-11-28T00:22:50.509Z,9.02
2018-11-28T00:25:20.250Z,9.03
2018-11-28T00:27:48.990Z,9.05
2018-11-28T00:30:20.250Z,9.05
2018-11-28T00:32:49.562Z,9.08
2018-11-28T00:35:20.124Z,9.08
2018-11-28T00:37:48.997Z,9.11
2018-11-28T00:40:19.064Z,9.12
2018-11-28T00:42:47.821Z,9.13
2018-11-28T00:45:19.159Z,9.14
2018-11-28T00:47:47.872Z,9.15
2018-11-28T00:50:21.554Z,9.16
2018-11-28T00:52:50.310Z,9.18
2018-11-28T00:55:19.121Z,9.20
2018-11-28T00:57:47.803Z,9.21
2018-11-28T01:00:18.581Z,9.22
2018-11-28T01:02:47.519Z,9.22
2018-11-28T01:05:16.346Z,9.23
2018-11-28T01:07:45.564Z,9.24
2018-11-28T01:10:15.999Z,9.26
2018-11-28T01:12:44.732Z,9.27
2018-11-28T01:15:15.399Z,9.27
2018-11-28T01:17:44.151Z,9.28
2018-11-28T01:20:13.741Z,9.29
2018-11-28T01:22:42.562Z,9.30
2018-11-28T01:25:12.143Z,9.32
2018-11-28T01:27:40.847Z,9.33
2018-11-28T01:30:13.506Z,9.34
2018-11-28T01:32:42.213Z,9.36
2018-11-28T01:35:13.772Z,9.36
2018-11-28T01:37:42.646Z,9.38
2018-11-28T01:40:14.344Z,9.40
2018-11-28T01:42:43.049Z,9.42
2018-11-28T01:45:13.094Z,9.42
2018-11-28T01:47:41.963Z,9.45
2018-11-28T01:50:11.738Z,9.46
2018-11-28T01:52:40.417Z,9.48
2018-11-28T01:55:10.373Z,9.49
2018-11-28T01:57:39.068Z,9.51
2018-11-28T02:00:13.326Z,9.53
2018-11-28T02:02:42.035Z,9.55
2018-11-28T02:05:11.547Z,9.57
2018-11-28T02:07:40.226Z,9.58
2018-11-28T02:10:13.215Z,9.62
2018-11-28T02:12:41.947Z,9.62
2018-11-28T02:15:11.990Z,9.64
2018-11-28T02:17:40.646Z,9.65
2018-11-28T02:20:12.337Z,9.64
2018-11-28T02:22:41.018Z,9.66
2018-11-28T02:25:11.718Z,9.67
2018-11-28T02:27:40.412Z,9.70
2018-11-28T02:30:15.685Z,9.71
2018-11-28T02:32:44.666Z,9.72
2018-11-28T02:35:14.056Z,9.73
2018-11-28T02:37:42.771Z,9.77
2018-11-28T02:40:13.146Z,9.79
2018-11-28T02:42:41.844Z,9.81
2018-11-28T02:45:12.736Z,9.83
2018-11-28T02:47:41.417Z,9.85
2018-11-28T02:50:10.165Z,9.87
2018-11-28T02:52:38.845Z,9.89
2018-11-28T02:55:11.498Z,9.91
2018-11-28T02:57:40.536Z,9.91
2018-11-28T03:00:16.580Z,9.94
2018-11-28T03:02:45.314Z,9.98
2018-11-28T03:05:14.279Z,9.98
2018-11-28T03:07:42.986Z,10.00
2018-11-28T03:10:17.333Z,10.02
2018-11-28T03:12:46.056Z,10.05
2018-11-28T03:15:18.024Z,10.08
2018-11-28T03:17:46.696Z,10.17
2018-11-28T03:20:15.354Z,10.36
2018-11-28T03:22:44.052Z,10.43
2018-11-28T03:25:12.782Z,10.51
2018-11-28T03:27:41.429Z,10.57
2018-11-28T03:30:14.338Z,10.65
2018-11-28T03:32:43.042Z,10.75
2018-11-28T03:35:13.727Z,10.81
2018-11-28T03:37:42.423Z,10.87
2018-11-28T03:40:11.292Z,10.92
2018-11-28T03:42:40.078Z,10.96
2018-11-28T03:45:13.259Z,11.01
2018-11-28T03:47:42.463Z,11.04
2018-11-28T03:50:12.055Z,11.08
2018-11-28T03:52:40.831Z,11.14
2018-11-28T03:55:14.366Z,11.18
2018-11-28T03:57:43.714Z,11.20
2018-11-28T04:00:16.216Z,11.23
2018-11-28T04:02:44.939Z,11.22
2018-11-28T04:05:13.840Z,11.23
2018-11-28T04:07:42.534Z,11.28
2018-11-28T04:10:13.117Z,11.32
2018-11-28T04:12:42.298Z,11.34
2018-11-28T04:15:16.010Z,11.36
2018-11-28T04:17:44.710Z,11.35
2018-11-28T04:20:18.371Z,11.36
2018-11-28T04:22:47.111Z,11.35
2018-11-28T04:25:16.618Z,11.38
2018-11-28T04:27:45.311Z,11.40
2018-11-28T04:30:15.208Z,11.43
2018-11-28T04:32:43.891Z,11.42
2018-11-28T04:35:13.334Z,11.45
2018-11-28T04:37:42.299Z,11.47
2018-11-28T04:40:12.952Z,11.49
2018-11-28T04:42:41.690Z,11.50
2018-11-28T04:45:12.654Z,11.51
2018-11-28T04:47:41.356Z,11.54
2018-11-28T04:50:10.950Z,11.54
2018-11-28T04:52:39.754Z,11.54
2018-11-28T04:55:15.325Z,11.57
2018-11-28T04:57:44.183Z,11.60
2018-11-28T05:00:16.618Z,11.61
2018-11-28T05:02:45.330Z,11.61
2018-11-28T05:05:14.013Z,11.63
2018-11-28T05:07:43.582Z,11.66
2018-11-28T05:10:14.179Z,11.66
2018-11-28T05:12:42.907Z,11.66
2018-11-28T05:15:13.502Z,11.68
2018-11-28T05:17:42.311Z,11.71
2018-11-28T05:20:13.066Z,11.73
2018-11-28T05:22:41.774Z,11.77
2018-11-28T05:25:28.739Z,11.76
2018-11-28T05:27:58.294Z,11.77
2018-11-28T05:30:30.695Z,11.77
2018-11-28T05:32:59.607Z,11.78
2018-11-28T05:35:34.285Z,11.78
2018-11-28T05:38:05.762Z,11.78
2018-11-28T05:40:34.433Z,11.81
2018-11-28T05:43:03.101Z,11.81
2018-11-28T05:45:31.773Z,11.84
2018-11-28T05:48:00.470Z,11.85
2018-11-28T05:50:29.207Z,11.88
2018-11-28T05:52:57.931Z,11.89
2018-11-28T05:55:26.598Z,11.91
2018-11-28T05:57:55.271Z,11.91
2018-11-28T06:00:27.194Z,11.91
2018-11-28T06:02:55.901Z,11.90
2018-11-28T06:05:24.617Z,11.91
2018-11-28T06:07:53.287Z,11.92
2018-11-28T06:10:22.037Z,11.92
2018-11-28T06:12:50.704Z,11.97
2018-11-28T06:15:19.368Z,11.97
2018-11-28T06:17:48.061Z,11.99
2018-11-28T06:20:16.889Z,12.00
2018-11-28T06:22:45.588Z,11.99
2018-11-28T06:25:16.125Z,12.01
2018-11-28T06:27:44.039Z,12.03
2018-11-28T06:30:14.930Z,12.05
2018-11-28T06:32:43.678Z,12.05
2018-11-28T06:35:12.640Z,12.06
2018-11-28T06:37:41.552Z,12.06
2018-11-28T06:40:14.826Z,12.08
2018-11-28T06:42:43.985Z,12.13
2018-11-28T06:45:13.696Z,12.14
2018-11-28T06:47:42.411Z,12.16
2018-11-28T06:50:14.066Z,12.16
2018-11-28T06:52:43.142Z,12.18
2018-11-28T06:55:13.143Z,12.20
2018-11-28T06:57:41.844Z,12.21
2018-11-28T07:00:16.182Z,12.24
2018-11-28T07:02:44.946Z,12.26
2018-11-28T07:05:13.785Z,12.25
2018-11-28T07:07:42.586Z,12.26
2018-11-28T07:10:13.338Z,12.29
2018-11-28T07:12:42.040Z,12.29
2018-11-28T07:15:14.454Z,12.30
2018-11-28T07:17:43.503Z,12.30
2018-11-28T07:20:13.185Z,12.30
2018-11-28T07:22:41.903Z,12.32
2018-11-28T07:25:11.741Z,12.32
2018-11-28T07:27:45.062Z,12.35
2018-11-28T07:30:12.946Z,12.35
2018-11-28T07:32:41.641Z,12.34
2018-11-28T07:35:10.950Z,12.35
2018-11-28T07:37:39.702Z,12.34
2018-11-28T07:40:13.934Z,12.40
2018-11-28T07:42:44.181Z,12.41
2018-11-28T07:45:13.229Z,12.39
2018-11-28T07:47:41.959Z,12.38
2018-11-28T07:50:11.115Z,12.41
2018-11-28T07:52:39.953Z,12.44
2018-11-28T07:55:10.995Z,12.46
2018-11-28T07:57:40.362Z,12.47
2018-11-28T08:00:12.988Z,12.49
2018-11-28T08:02:42.150Z,12.50
2018-11-28T08:05:11.651Z,12.53
2018-11-28T08:07:40.508Z,12.55
2018-11-28T08:10:11.063Z,12.55
2018-11-28T08:12:39.868Z,12.59
2018-11-28T08:15:09.146Z,12.60
2018-11-28T08:17:37.866Z,12.63
2018-11-28T08:20:06.989Z,12.66
2018-11-28T08:22:36.263Z,12.67
2018-11-28T08:25:04.898Z,12.70
2018-11-28T08:27:33.504Z,12.72
2018-11-28T08:30:02.441Z,12.74
2018-11-28T08:32:31.680Z,12.75
2018-11-28T08:35:00.507Z,12.77
2018-11-28T08:37:29.287Z,12.77
2018-11-28T08:39:58.109Z,12.81
2018-11-28T08:42:26.870Z,12.81
2018-11-28T08:44:55.710Z,12.84
2018-11-28T08:47:24.447Z,12.86
2018-11-28T08:49:54.108Z,12.89
2018-11-28T08:52:22.943Z,12.90
2018-11-28T08:54:51.776Z,12.94
2018-11-28T08:57:20.540Z,12.94
2018-11-28T08:59:49.690Z,12.95
2018-11-28T09:02:18.466Z,12.97
2018-11-28T09:04:47.706Z,13.02
2018-11-28T09:07:16.494Z,13.04
2018-11-28T09:09:45.204Z,13.08
2018-11-28T09:12:14.020Z,13.09
2018-11-28T09:14:42.774Z,13.10
2018-11-28T09:17:15.153Z,13.11
2018-11-28T09:19:40.434Z,13.15
2018-11-28T09:22:09.197Z,13.17
2018-11-28T09:24:37.867Z,13.19
2018-11-28T09:27:06.641Z,13.19
2018-11-28T09:29:35.344Z,13.23
2018-11-28T09:32:04.049Z,13.24
2018-11-28T09:34:32.735Z,13.25
2018-11-28T09:37:01.433Z,13.29
2018-11-28T09:39:30.098Z,13.29
2018-11-28T09:41:58.782Z,13.30
2018-11-28T09:44:27.492Z,13.32
2018-11-28T09:46:56.222Z,13.34
2018-11-28T09:49:24.903Z,13.33
2018-11-28T09:51:53.571Z,13.34
2018-11-28T09:54:22.249Z,13.37
2018-11-28T09:56:50.930Z,13.39
2018-11-28T09:59:19.596Z,13.40
2018-11-28T10:01:48.270Z,13.43
2018-11-28T10:04:16.939Z,13.48
2018-11-28T10:06:45.672Z,13.51
2018-11-28T10:09:14.383Z,13.53
2018-11-28T10:11:43.078Z,13.57
2018-11-28T10:14:11.758Z,13.61
2018-11-28T10:16:40.577Z,13.64
2018-11-28T10:19:09.199Z,13.71
2018-11-28T10:21:37.861Z,13.75
2018-11-28T10:24:07.026Z,13.80
2018-11-28T10:26:35.714Z,13.82
2018-11-28T10:29:04.443Z,13.81
2018-11-28T10:31:33.164Z,13.82
2018-11-28T10:34:01.878Z,13.85
2018-11-28T10:36:30.613Z,13.87
2018-11-28T10:38:59.286Z,13.88
2018-11-28T10:41:27.950Z,13.87
2018-11-28T10:43:56.638Z,13.89
2018-11-28T10:46:25.350Z,13.84
2018-11-28T10:48:54.042Z,13.89
2018-11-28T10:51:22.734Z,13.89
2018-11-28T10:53:51.423Z,13.92
2018-11-28T10:56:20.122Z,13.96
2018-11-28T10:58:48.819Z,13.99
2018-11-28T11:01:22.498Z,14.06
2018-11-28T11:03:56.127Z,14.08
2018-11-28T11:06:29.852Z,14.10
2018-11-28T11:09:03.783Z,14.10
2018-11-28T11:11:37.696Z,14.11
2018-11-28T11:14:11.436Z,14.14
2018-11-28T11:16:40.166Z,14.12
2018-11-28T11:19:08.946Z,14.15
2018-11-28T11:21:37.644Z,14.15
2018-11-28T11:24:06.552Z,14.15
2018-11-28T11:26:35.311Z,14.19
2018-11-28T11:29:04.046Z,14.20
2018-11-28T11:31:32.727Z,14.23
2018-11-28T11:34:01.446Z,14.21
2018-11-28T11:36:30.155Z,14.18
2018-11-28T11:38:58.852Z,14.21
2018-11-28T11:41:27.560Z,14.22
2018-11-28T11:43:56.265Z,14.20
2018-11-28T11:46:24.974Z,14.19
2018-11-28T11:48:53.757Z,14.18
2018-11-28T11:51:22.504Z,14.13
2018-11-28T11:53:51.191Z,14.10
2018-11-28T11:56:19.898Z,14.07
2018-11-28T11:58:48.560Z,14.04
2018-11-28T12:01:17.375Z,14.01
2018-11-28T12:03:46.029Z,14.10
2018-11-28T12:06:14.733Z,14.12
2018-11-28T12:08:43.411Z,14.12
2018-11-28T12:11:12.138Z,14.12
2018-11-28T12:13:40.822Z,14.10
2018-11-28T12:16:09.541Z,14.15
2018-11-28T12:18:38.282Z,14.16
2018-11-28T12:21:07.724Z,14.18
2018-11-28T12:23:36.671Z,14.16
2018-11-28T12:26:05.454Z,14.16
2018-11-28T12:28:34.185Z,14.16
2018-11-28T12:31:02.922Z,14.20
2018-11-28T12:33:31.587Z,14.24
2018-11-28T12:36:00.294Z,14.26
2018-11-28T12:38:28.974Z,14.34
2018-11-28T12:40:58.358Z,14.35
2018-11-28T12:43:27.074Z,14.37
2018-11-28T12:45:55.795Z,14.35
2018-11-28T12:48:24.518Z,14.29
2018-11-28T12:50:53.200Z,14.21
2018-11-28T12:53:21.909Z,14.18
2018-11-28T12:55:50.606Z,14.14
2018-11-28T12:58:21.240Z,14.15
2018-11-28T13:00:49.951Z,14.19
2018-11-28T13:03:19.333Z,14.23
2018-11-28T13:05:48.090Z,14.27
2018-11-28T13:08:16.824Z,14.28
2018-11-28T13:10:45.558Z,14.26
2018-11-28T13:13:14.283Z,14.26
2018-11-28T13:15:42.972Z,14.26
2018-11-28T13:18:11.959Z,14.24
2018-11-28T13:20:41.739Z,14.24
2018-11-28T13:23:11.519Z,14.32
2018-11-28T13:25:40.273Z,14.33
2018-11-28T13:28:09.106Z,14.29
2018-11-28T13:30:38.271Z,14.39
2018-11-28T13:33:07.653Z,14.50
2018-11-28T13:35:36.394Z,14.59
2018-11-28T13:38:07.598Z,14.63
2018-11-28T13:40:36.311Z,14.60
2018-11-28T13:43:05.073Z,14.60
2018-11-28T13:45:35.834Z,14.60
2018-11-28T13:48:04.593Z,14.61
2018-11-28T13:50:33.310Z,14.61
2018-11-28T13:53:03.981Z,14.60
2018-11-28T13:55:38.629Z,14.59
2018-11-28T13:58:02.749Z,14.61
2018-11-28T14:00:31.534Z,14.69
2018-11-28T14:03:00.231Z,14.71
2018-11-28T14:05:28.980Z,14.76
2018-11-28T14:07:57.753Z,14.84
2018-11-28T14:10:26.514Z,14.82
2018-11-28T14:12:55.220Z,14.75
2018-11-28T14:15:24.249Z,14.72
2018-11-28T14:17:55.984Z,14.71
2018-11-28T14:20:24.768Z,14.60
2018-11-28T14:22:53.517Z,14.63
2018-11-28T14:25:22.311Z,14.58
2018-11-28T14:27:51.094Z,14.51
2018-11-28T14:30:21.588Z,14.44
2018-11-28T14:32:50.801Z,14.43
2018-11-28T14:35:19.831Z,14.44
2018-11-28T14:37:48.618Z,14.51
2018-11-28T14:40:20.083Z,14.52
2018-11-28T14:42:50.194Z,14.52
2018-11-28T14:45:19.514Z,14.57
2018-11-28T14:47:48.979Z,14.61
2018-11-28T14:50:22.456Z,14.60
2018-11-28T14:52:51.401Z,14.55
2018-11-28T14:55:22.266Z,14.51
2018-11-28T14:57:51.023Z,14.50
2018-11-28T15:00:22.713Z,14.48
2018-11-28T15:02:55.641Z,14.42
2018-11-28T15:06:35.840Z,14.45
2018-11-28T15:09:11.626Z,14.43
2018-11-28T15:11:41.055Z,14.42
2018-11-28T15:14:09.152Z,14.41
2018-11-28T15:16:37.876Z,14.39
2018-11-28T15:19:06.623Z,14.40
2018-11-28T15:21:35.349Z,14.36
2018-11-28T15:24:04.122Z,14.36
2018-11-28T15:26:32.814Z,14.36
2018-11-28T15:29:01.566Z,14.35
2018-11-28T15:31:30.301Z,14.35
2018-11-28T15:33:59.023Z,14.37
2018-11-28T15:36:27.728Z,14.39
2018-11-28T15:38:56.411Z,14.39
2018-11-28T15:41:25.124Z,14.32
2018-11-28T15:43:53.902Z,14.33
2018-11-28T15:46:22.614Z,14.26
2018-11-28T15:48:51.307Z,14.22
2018-11-28T15:51:20.034Z,14.16
2018-11-28T15:53:48.758Z,14.10
2018-11-28T15:56:17.538Z,14.07
2018-11-28T15:58:46.290Z,14.01
2018-11-28T16:01:15.192Z,13.99
2018-11-28T16:03:43.926Z,13.94
2018-11-28T16:06:12.663Z,13.88
2018-11-28T16:08:41.456Z,13.83
2018-11-28T16:11:13.457Z,13.80
2018-11-28T16:13:42.132Z,13.77
2018-11-28T16:16:10.853Z,13.75
2018-11-28T16:18:39.534Z,13.73
2018-11-28T16:21:08.332Z,13.69
2018-11-28T16:23:37.082Z,13.64
2018-11-28T16:26:06.359Z,13.60
2018-11-28T16:28:35.530Z,13.58
2018-11-28T16:31:04.282Z,13.57
2018-11-28T16:33:33.080Z,13.55
2018-11-28T16:36:02.151Z,13.52
2018-11-28T16:38:30.907Z,13.51
2018-11-28T16:40:59.613Z,13.47
2018-11-28T16:43:28.316Z,13.41
2018-11-28T16:45:57.015Z,13.42
2018-11-28T16:48:25.705Z,13.40
2018-11-28T16:50:54.433Z,13.34
2018-11-28T16:53:23.144Z,13.35
2018-11-28T16:55:51.854Z,13.35
2018-11-28T16:58:20.587Z,13.31
2018-11-28T17:00:49.301Z,13.34
2018-11-28T17:03:18.067Z,13.36
2018-11-28T17:05:46.798Z,13.38
2018-11-28T17:08:15.489Z,13.44
2018-11-28T17:10:44.178Z,13.44
2018-11-28T17:13:12.850Z,13.42
2018-11-28T17:15:41.584Z,13.42
2018-11-28T17:18:10.271Z,13.41
2018-11-28T17:20:41.599Z,13.38
2018-11-28T17:23:10.342Z,13.35
2018-11-28T17:25:39.069Z,13.34
2018-11-28T17:28:07.779Z,13.34
2018-11-28T17:30:36.958Z,13.33
2018-11-28T17:33:06.433Z,13.31
2018-11-28T17:35:35.178Z,13.31
2018-11-28T17:38:03.919Z,13.31
2018-11-28T17:40:32.606Z,13.31
2018-11-28T17:43:01.322Z,13.32
2018-11-28T17:45:30.368Z,13.32
2018-11-28T17:47:59.128Z,13.29
2018-11-28T17:50:28.087Z,13.31
2018-11-28T17:53:12.548Z,13.32
2018-11-28T17:55:45.034Z,13.31
2018-11-28T17:58:13.808Z,13.29
2018-11-28T18:00:42.588Z,13.28
2018-11-28T18:03:11.341Z,13.27
2018-11-28T18:05:40.154Z,13.25
2018-11-28T18:08:09.060Z,13.23
2018-11-28T18:10:37.818Z,13.18
2018-11-28T18:13:08.145Z,13.06
2018-11-28T18:15:37.028Z,12.97
2018-11-28T18:18:07.302Z,12.86
2018-11-28T18:20:36.033Z,12.77
2018-11-28T18:23:07.028Z,12.69
2018-11-28T18:25:35.859Z,12.62
2018-11-28T18:28:04.785Z,12.58
2018-11-28T18:30:33.531Z,12.53
2018-11-28T18:33:02.339Z,12.50
2018-11-28T18:35:31.163Z,12.52
2018-11-28T18:37:59.938Z,12.53
2018-11-28T18:40:28.675Z,12.52
2018-11-28T18:42:57.426Z,12.49
2018-11-28T18:45:27.505Z,12.46
2018-11-28T18:47:56.247Z,12.43
2018-11-28T18:50:25.139Z,12.42
2018-11-28T18:52:53.938Z,12.39
2018-11-28T18:55:22.782Z,12.38
2018-11-28T18:57:53.042Z,12.35
2018-11-28T19:00:24.462Z,12.33
2018-11-28T19:02:53.588Z,12.34
2018-11-28T19:05:22.325Z,12.34
2018-11-28T19:07:51.094Z,12.35
2018-11-28T19:10:26.071Z,12.35
2018-11-28T19:12:49.609Z,12.35
2018-11-28T19:15:22.096Z,12.35
2018-11-28T19:17:50.938Z,12.31
2018-11-28T19:20:20.620Z,12.27
2018-11-28T19:22:49.763Z,12.25
2018-11-28T19:25:19.612Z,12.23
2018-11-28T19:27:48.415Z,12.22
2018-11-28T19:30:21.391Z,12.21
2018-11-28T19:32:50.178Z,12.23
2018-11-28T19:35:18.909Z,12.23
2018-11-28T19:37:47.715Z,12.24
2018-11-28T19:40:25.919Z,12.25
2018-11-28T19:42:54.638Z,12.26
2018-11-28T19:45:23.508Z,12.26
2018-11-28T19:47:52.240Z,12.28
2018-11-28T19:50:26.491Z,12.24
2018-11-28T19:52:55.173Z,12.24
2018-11-28T19:55:23.966Z,12.24
2018-11-28T19:57:53.585Z,12.24
2018-11-28T20:00:22.343Z,12.25
2018-11-28T20:02:51.270Z,12.22
2018-11-28T20:05:20.110Z,12.21
2018-11-28T20:07:49.815Z,12.21
2018-11-28T20:10:21.455Z,12.20
2018-11-28T20:12:50.420Z,12.18
2018-11-28T20:15:21.506Z,12.17
2018-11-28T20:17:50.473Z,12.15
2018-11-28T20:20:19.271Z,12.12
2018-11-28T20:22:48.031Z,12.09
2018-11-28T20:25:17.797Z,12.06
2018-11-28T20:27:48.851Z,12.05
2018-11-28T20:30:23.291Z,12.02
2018-11-28T20:32:51.998Z,12.00
2018-11-28T20:35:20.684Z,11.97
2018-11-28T20:37:49.414Z,11.93
2018-11-28T20:40:18.714Z,11.89
2018-11-28T20:42:48.639Z,11.86
2018-11-28T20:45:17.463Z,11.83
2018-11-28T20:47:46.267Z,11.78
2018-11-28T20:50:18.267Z,11.73
2018-11-28T20:52:48.503Z,11.69
2018-11-28T20:55:17.326Z,11.65
2018-11-28T20:57:46.110Z,11.60
2018-11-28T21:00:17.093Z,11.55
2018-11-28T21:02:45.835Z,11.52
2018-11-28T21:05:14.634Z,11.48
2018-11-28T21:07:43.417Z,11.46
2018-11-28T21:10:19.175Z,11.42
2018-11-28T21:12:47.967Z,11.39
2018-11-28T21:15:17.526Z,11.34
2018-11-28T21:17:46.706Z,11.31
2018-11-28T21:20:16.439Z,11.26
2018-11-28T21:22:48.432Z,11.23
2018-11-28T21:25:17.172Z,11.18
2018-11-28T21:27:45.928Z,11.14
2018-11-28T21:30:16.486Z,11.09
2018-11-28T21:32:45.377Z,11.04
2018-11-28T21:35:18.397Z,11.00
2018-11-28T21:37:47.155Z,10.96
2018-11-28T21:40:15.899Z,10.93
2018-11-28T21:42:44.693Z,10.89
2018-11-28T21:45:14.574Z,10.85
2018-11-28T21:47:43.571Z,10.82
2018-11-28T21:50:18.035Z,10.78
2018-11-28T21:52:46.836Z,10.74
2018-11-28T21:55:19.413Z,10.72
2018-11-28T21:57:48.228Z,10.67
2018-11-28T22:00:22.020Z,10.65
2018-11-28T22:02:50.731Z,10.62
2018-11-28T22:05:19.464Z,10.60
2018-11-28T22:07:48.255Z,10.58
2018-11-28T22:10:25.226Z,10.57
2018-11-28T22:12:54.699Z,10.54
2018-11-28T22:15:23.457Z,10.52
2018-11-28T22:17:55.899Z,10.51
2018-11-28T22:20:25.271Z,10.49
2018-11-28T22:22:54.201Z,10.48
2018-11-28T22:25:24.917Z,10.45
2018-11-28T22:27:53.734Z,10.45
2018-11-28T22:30:26.302Z,10.44
2018-11-28T22:32:55.095Z,10.43
2018-11-28T22:35:23.835Z,10.41
2018-11-28T22:37:53.252Z,10.39
2018-11-28T22:40:24.730Z,10.37
2018-11-28T22:42:53.421Z,10.35
2018-11-28T22:45:23.193Z,10.33
2018-11-28T22:47:51.906Z,10.29
2018-11-28T22:50:20.692Z,10.25
2018-11-28T22:52:49.414Z,10.23
2018-11-28T22:55:18.482Z,10.21
2018-11-28T22:57:47.162Z,10.20
2018-11-28T23:00:16.866Z,10.19
2018-11-28T23:02:53.635Z,10.16
2018-11-28T23:05:26.632Z,10.16
2018-11-28T23:07:56.833Z,10.18
2018-11-28T23:10:25.626Z,10.19
2018-11-28T23:12:54.431Z,10.20
2018-11-28T23:15:23.203Z,10.22
2018-11-28T23:17:55.158Z,10.25
2018-11-28T23:20:20.713Z,10.26
2018-11-28T23:22:49.410Z,10.29
2018-11-28T23:25:18.104Z,10.32
2018-11-28T23:27:46.837Z,10.35
2018-11-28T23:30:17.386Z,10.36
2018-11-28T23:32:46.635Z,10.37
2018-11-28T23:35:15.411Z,10.41
2018-11-28T23:37:45.165Z,10.45
2018-11-28T23:40:16.551Z,10.51
2018-11-28T23:42:45.276Z,10.57
2018-11-28T23:45:14.548Z,10.64
2018-11-28T23:47:43.324Z,10.71
2018-11-28T23:50:15.721Z,10.76
2018-11-28T23:52:44.686Z,10.82
2018-11-28T23:55:29.976Z,10.87
2018-11-28T23:57:58.732Z,10.91
